createdAt,value
2023-06-07T00:04:47.139Z,14.97
2023-06-07T00:09:49.599Z,14.82
2023-06-07T00:14:52.190Z,14.66
2023-06-07T00:19:56.831Z,14.53
2023-06-07T00:24:58.640Z,14.45
2023-06-07T00:30:01.445Z,14.42
2023-06-07T00:35:07.998Z,14.44
2023-06-07T00:40:10.794Z,14.47
2023-06-07T00:45:13.187Z,14.48
2023-06-07T00:50:15.476Z,14.50
2023-06-07T00:55:17.556Z,14.50
2023-06-07T01:00:21.066Z,14.41
2023-06-07T01:05:23.048Z,14.28
2023-06-07T01:10:25.237Z,14.16
2023-06-07T01:15:27.113Z,14.00
2023-06-07T01:20:32.402Z,13.81
2023-06-07T01:25:34.547Z,13.60
2023-06-07T01:30:36.593Z,13.37
2023-06-07T01:35:40.353Z,13.16
2023-06-07T01:40:44.181Z,12.99
2023-06-07T01:45:47.116Z,12.87
2023-06-07T01:50:49.054Z,12.75
2023-06-07T01:56:04.142Z,12.64
2023-06-07T02:01:09.493Z,12.58
2023-06-07T02:06:17.616Z,12.55
2023-06-07T02:11:23.079Z,12.52
2023-06-07T02:16:36.409Z,12.53
2023-06-07T02:21:38.721Z,12.53
2023-06-07T02:26:41.106Z,12.53
2023-06-07T02:31:42.905Z,12.52
2023-06-07T02:36:45.311Z,12.50
2023-06-07T02:41:47.155Z,12.45
2023-06-07T02:46:49.122Z,12.41
2023-06-07T02:51:51.451Z,12.42
2023-06-07T02:56:53.384Z,12.48
2023-06-07T03:01:55.494Z,12.56
2023-06-07T03:06:57.550Z,12.67
2023-06-07T03:11:59.427Z,12.77
2023-06-07T03:17:03.566Z,12.86
2023-06-07T03:22:07.172Z,13.01
2023-06-07T03:27:12.237Z,13.28
2023-06-07T03:32:14.312Z,13.76
2023-06-07T03:37:17.326Z,14.47
2023-06-07T03:42:18.979Z,15.40
2023-06-07T03:47:20.865Z,16.59
2023-06-07T03:52:23.041Z,17.88
2023-06-07T03:57:25.128Z,19.05
2023-06-07T04:02:28.889Z,19.90
2023-06-07T04:07:30.829Z,20.76
2023-06-07T04:12:32.600Z,21.36
2023-06-07T04:17:34.418Z,21.85
2023-06-07T04:22:36.577Z,22.35
2023-06-07T04:27:39.054Z,23.02
2023-06-07T04:32:41.074Z,23.91
2023-06-07T04:37:46.500Z,24.63
2023-06-07T04:42:56.280Z,25.16
2023-06-07T04:47:59.393Z,25.78
2023-06-07T04:53:03.484Z,26.20
2023-06-07T04:58:06.694Z,26.74
2023-06-07T05:03:14.101Z,27.36
2023-06-07T05:08:16.898Z,27.97
2023-06-07T05:13:18.784Z,28.71
2023-06-07T05:18:21.371Z,29.03
2023-06-07T05:23:23.402Z,29.56
2023-06-07T05:28:25.340Z,29.97
2023-06-07T05:33:31.631Z,30.58
2023-06-07T05:38:33.487Z,31.24
2023-06-07T05:43:36.802Z,32.00
2023-06-07T05:48:38.681Z,32.73
2023-06-07T05:53:40.694Z,32.97
2023-06-07T05:58:43.766Z,32.88
2023-06-07T06:03:45.748Z,32.65
2023-06-07T06:08:47.623Z,32.35
2023-06-07T06:13:51.029Z,32.77
2023-06-07T06:18:53.008Z,32.91
2023-06-07T06:23:54.739Z,33.42
2023-06-07T06:28:56.763Z,33.91
2023-06-07T06:33:58.946Z,34.42
2023-06-07T06:39:03.278Z,34.89
2023-06-07T06:44:05.262Z,35.70
2023-06-07T06:49:12.664Z,36.31
2023-06-07T06:54:15.665Z,36.48
2023-06-07T06:59:17.542Z,36.40
2023-06-07T07:04:19.472Z,36.28
2023-06-07T07:09:21.511Z,36.40
2023-06-07T07:14:23.282Z,37.20
2023-06-07T07:19:25.268Z,37.64
2023-06-07T07:24:27.596Z,37.93
2023-06-07T07:29:29.552Z,38.38
2023-06-07T07:34:31.489Z,38.71
2023-06-07T07:39:33.588Z,39.52
2023-06-07T07:44:35.698Z,40.24
2023-06-07T07:49:37.629Z,40.63
2023-06-07T07:54:40.041Z,39.99
2023-06-07T07:59:42.020Z,39.69
2023-06-07T08:04:43.939Z,40.26
2023-06-07T08:09:45.770Z,40.95
2023-06-07T08:14:47.761Z,41.46
2023-06-07T08:19:49.643Z,41.77
2023-06-07T08:24:51.813Z,41.86
2023-06-07T08:29:53.587Z,42.02
2023-06-07T08:34:56.385Z,41.99
2023-06-07T08:39:58.262Z,41.97
2023-06-07T08:45:01.169Z,42.34
2023-06-07T08:50:05.203Z,42.30
2023-06-07T08:55:13.434Z,42.06
2023-06-07T09:00:15.905Z,42.92
2023-06-07T09:05:22.752Z,43.59
2023-06-07T09:10:25.095Z,43.72
2023-06-07T09:15:28.820Z,43.19
2023-06-07T09:20:32.439Z,42.07
2023-06-07T09:25:34.834Z,41.35
2023-06-07T09:30:51.950Z,41.29
2023-06-07T09:36:11.868Z,40.86
2023-06-07T09:41:14.116Z,39.94
2023-06-07T09:46:17.352Z,40.30
2023-06-07T09:51:21.007Z,40.20
2023-06-07T09:56:24.816Z,39.90
2023-06-07T10:01:41.564Z,39.58
2023-06-07T10:06:45.640Z,39.21
2023-06-07T10:11:53.907Z,37.68
2023-06-07T10:17:04.289Z,36.29
2023-06-07T10:22:15.025Z,35.72
2023-06-07T10:27:22.047Z,35.16
2023-06-07T10:32:29.118Z,34.02
2023-06-07T10:37:35.052Z,32.98
2023-06-07T10:42:47.648Z,31.70
2023-06-07T10:47:50.386Z,30.77
2023-06-07T10:52:57.022Z,30.29
2023-06-07T10:58:02.056Z,30.30
2023-06-07T11:03:11.789Z,30.94
2023-06-07T11:08:31.781Z,31.53
2023-06-07T11:13:40.939Z,31.93
2023-06-07T11:19:11.870Z,32.16
2023-06-07T11:24:14.679Z,32.32
2023-06-07T11:29:21.638Z,32.24
2023-06-07T11:34:24.322Z,31.92
2023-06-07T11:39:33.679Z,31.51
2023-06-07T11:44:36.096Z,31.14
2023-06-07T11:49:41.838Z,30.76
2023-06-07T11:54:44.580Z,30.64
2023-06-07T11:59:46.554Z,30.44
2023-06-07T12:04:48.650Z,30.04
2023-06-07T12:09:51.284Z,30.08
2023-06-07T12:15:03.022Z,30.35
2023-06-07T12:20:13.362Z,30.24
2023-06-07T12:25:20.301Z,30.07
2023-06-07T12:30:32.943Z,30.28
2023-06-07T12:35:39.892Z,30.69
2023-06-07T12:40:42.108Z,30.75
2023-06-07T12:45:44.244Z,30.96
2023-06-07T12:50:48.294Z,31.15
2023-06-07T12:55:50.584Z,31.06
2023-06-07T13:00:55.031Z,30.82
2023-06-07T13:05:57.399Z,30.22
2023-06-07T13:10:59.226Z,29.81
2023-06-07T13:16:01.656Z,29.46
2023-06-07T13:21:04.057Z,29.33
2023-06-07T13:26:06.448Z,29.56
2023-06-07T13:31:08.320Z,29.83
2023-06-07T13:36:10.244Z,30.08
2023-06-07T13:41:12.378Z,30.36
2023-06-07T13:46:15.628Z,30.55
2023-06-07T13:51:18.599Z,30.52
2023-06-07T13:56:22.936Z,30.47
2023-06-07T14:01:25.044Z,30.20
2023-06-07T14:06:27.885Z,30.09
2023-06-07T14:11:30.912Z,29.98
2023-06-07T14:16:33.161Z,29.86
2023-06-07T14:21:36.716Z,29.87
2023-06-07T14:26:38.696Z,29.81
2023-06-07T14:31:40.829Z,29.81
2023-06-07T14:36:44.297Z,29.89
2023-06-07T14:41:46.782Z,29.89
2023-06-07T14:46:48.665Z,29.81
2023-06-07T14:51:50.660Z,29.64
2023-06-07T14:56:52.630Z,29.54
2023-06-07T15:01:54.602Z,29.41
2023-06-07T15:06:56.480Z,29.27
2023-06-07T15:11:59.684Z,29.01
2023-06-07T15:17:04.244Z,28.56
2023-06-07T15:22:07.538Z,28.09
2023-06-07T15:27:10.254Z,27.71
2023-06-07T15:32:12.938Z,27.40
2023-06-07T15:37:15.523Z,27.14
2023-06-07T15:42:18.430Z,26.95
2023-06-07T15:47:20.404Z,26.81
2023-06-07T15:52:23.707Z,26.68
2023-06-07T15:57:26.207Z,26.66
2023-06-07T16:02:28.553Z,26.83
2023-06-07T16:07:30.596Z,27.08
2023-06-07T16:12:32.757Z,27.28
2023-06-07T16:17:35.010Z,27.39
2023-06-07T16:22:37.871Z,27.45
2023-06-07T16:27:41.696Z,27.44
2023-06-07T16:32:44.004Z,27.34
2023-06-07T16:37:47.359Z,27.11
2023-06-07T16:42:49.654Z,26.91
2023-06-07T16:47:51.437Z,26.76
2023-06-07T16:52:53.414Z,26.58
2023-06-07T16:57:55.688Z,26.47
2023-06-07T17:02:58.156Z,26.36
2023-06-07T17:08:00.365Z,26.29
2023-06-07T17:13:02.813Z,26.24
2023-06-07T17:18:04.967Z,26.21
2023-06-07T17:23:07.329Z,26.19
2023-06-07T17:28:10.338Z,26.17
2023-06-07T17:33:12.558Z,26.12
2023-06-07T17:38:14.908Z,26.06
2023-06-07T17:43:16.905Z,25.97
2023-06-07T17:48:19.071Z,25.86
2023-06-07T17:53:20.972Z,25.70
2023-06-07T17:58:23.646Z,25.50
2023-06-07T18:03:26.058Z,25.28
2023-06-07T18:08:28.122Z,25.06
2023-06-07T18:13:29.994Z,24.85
2023-06-07T18:18:35.160Z,24.66
2023-06-07T18:23:37.306Z,24.48
2023-06-07T18:28:39.312Z,24.26
2023-06-07T18:33:49.906Z,24.02
2023-06-07T18:38:54.658Z,23.82
2023-06-07T18:44:01.632Z,23.61
2023-06-07T18:49:06.072Z,23.44
2023-06-07T18:54:08.669Z,23.25
2023-06-07T18:59:10.747Z,23.03
2023-06-07T19:04:14.252Z,22.81
2023-06-07T19:09:19.621Z,22.68
2023-06-07T19:14:22.058Z,22.53
2023-06-07T19:19:25.122Z,22.38
2023-06-07T19:24:28.039Z,22.24
2023-06-07T19:29:30.838Z,22.06
2023-06-07T19:34:35.991Z,21.89
2023-06-07T19:39:39.088Z,21.74
2023-06-07T19:44:43.090Z,21.62
2023-06-07T19:49:46.969Z,21.49
2023-06-07T19:54:50.747Z,21.33
2023-06-07T19:59:54.161Z,21.14
2023-06-07T20:04:56.246Z,20.94
2023-06-07T20:10:05.725Z,20.78
2023-06-07T20:15:11.912Z,20.63
2023-06-07T20:20:14.776Z,20.49
2023-06-07T20:25:17.564Z,20.34
2023-06-07T20:30:19.679Z,20.18
2023-06-07T20:35:22.256Z,20.04
2023-06-07T20:40:24.754Z,19.88
2023-06-07T20:45:27.453Z,19.73
2023-06-07T20:50:31.157Z,19.61
2023-06-07T20:55:36.424Z,19.47
2023-06-07T21:00:42.483Z,19.30
2023-06-07T21:05:45.191Z,19.16
2023-06-07T21:10:48.087Z,19.03
2023-06-07T21:15:54.252Z,18.91
2023-06-07T21:20:57.064Z,18.80
2023-06-07T21:25:59.267Z,18.69
2023-06-07T21:31:02.657Z,18.57
2023-06-07T21:36:04.951Z,18.41
2023-06-07T21:41:07.032Z,18.23
2023-06-07T21:46:09.479Z,18.00
2023-06-07T21:51:11.910Z,17.81
2023-06-07T21:56:13.795Z,17.63
2023-06-07T22:01:17.146Z,17.46
2023-06-07T22:06:20.462Z,17.30
2023-06-07T22:11:23.111Z,17.18
2023-06-07T22:16:26.229Z,17.07
2023-06-07T22:21:30.964Z,16.94
2023-06-07T22:26:33.559Z,16.80
2023-06-07T22:31:37.411Z,16.66
2023-06-07T22:36:42.537Z,16.55
2023-06-07T22:41:44.413Z,16.46
2023-06-07T22:46:46.640Z,16.38
2023-06-07T22:51:54.203Z,16.31
2023-06-07T22:56:57.010Z,16.27
2023-06-07T23:01:58.926Z,16.26
2023-06-07T23:07:02.905Z,16.24
2023-06-07T23:12:09.914Z,16.20
2023-06-07T23:17:12.391Z,16.12
2023-06-07T23:22:14.269Z,16.02
2023-06-07T23:27:16.456Z,15.92
2023-06-07T23:32:18.608Z,15.82
2023-06-07T23:37:20.593Z,15.74
2023-06-07T23:42:23.727Z,15.65
2023-06-07T23:47:26.067Z,15.55
2023-06-07T23:52:28.088Z,15.44
2023-06-07T23:57:30.963Z,15.31
